createdAt,value
2023-04-30T00:01:01.501Z,100180.66
2023-04-30T00:03:30.964Z,100175.22
2023-04-30T00:06:02.786Z,100183.94
2023-04-30T00:08:32.027Z,100179.47
2023-04-30T00:11:01.245Z,100189.63
2023-04-30T00:13:35.780Z,100173.97
2023-04-30T00:16:05.418Z,100191.25
2023-04-30T00:18:34.717Z,100194.03
2023-04-30T00:21:06.685Z,100200.72
2023-04-30T00:23:36.355Z,100198.97
2023-04-30T00:26:05.708Z,100195.66
2023-04-30T00:28:46.522Z,100169.53
2023-04-30T00:31:15.981Z,100180.56
2023-04-30T00:33:45.242Z,100203.88
2023-04-30T00:36:21.684Z,100204.69
2023-04-30T00:38:51.473Z,100205.38
2023-04-30T00:41:21.459Z,100206.97
2023-04-30T00:46:25.552Z,100206.59
2023-04-30T00:48:55.092Z,100205.94
2023-04-30T00:51:26.486Z,100202.72
2023-04-30T00:53:56.253Z,100200.28
2023-04-30T00:56:25.526Z,100201.94
2023-04-30T00:58:57.113Z,100208.75
2023-04-30T01:01:28.644Z,100209.56
2023-04-30T01:03:59.036Z,100202.53
2023-04-30T01:06:31.272Z,100199.94
2023-04-30T01:09:05.874Z,100204.34
2023-04-30T01:11:49.966Z,100204.41
2023-04-30T01:14:30.767Z,100208.59
2023-04-30T01:17:07.469Z,100211.69
2023-04-30T01:19:45.496Z,100221.56
2023-04-30T01:22:37.968Z,100214.63
2023-04-30T01:25:24.009Z,100209.44
2023-04-30T01:28:07.999Z,100220.72
2023-04-30T01:30:45.400Z,100219.06
2023-04-30T01:36:20.613Z,100223.09
2023-04-30T01:39:10.437Z,100215.59
2023-04-30T01:41:57.333Z,100216.75
2023-04-30T01:44:45.103Z,100217.78
2023-04-30T01:47:32.615Z,100215.22
2023-04-30T01:50:12.497Z,100214.50
2023-04-30T01:52:49.374Z,100213.75
2023-04-30T01:55:25.933Z,100199.31
2023-04-30T01:57:59.755Z,100212.41
2023-04-30T02:00:32.655Z,100211.19
2023-04-30T02:05:47.680Z,100195.47
2023-04-30T02:08:17.059Z,100206.00
2023-04-30T02:10:46.342Z,100192.44
2023-04-30T02:13:33.834Z,100191.81
2023-04-30T02:16:05.873Z,100190.31
2023-04-30T02:18:40.365Z,100186.16
2023-04-30T02:21:09.613Z,100185.34
2023-04-30T02:23:38.791Z,100181.97
2023-04-30T02:26:08.456Z,100171.50
2023-04-30T02:28:37.839Z,100175.94
2023-04-30T02:31:10.088Z,100173.56
2023-04-30T02:33:39.968Z,100174.53
2023-04-30T02:36:09.182Z,100168.72
2023-04-30T02:38:38.421Z,100175.84
2023-04-30T02:41:07.842Z,100141.53
2023-04-30T02:43:37.044Z,100134.78
2023-04-30T02:46:06.415Z,100151.97
2023-04-30T02:48:37.590Z,100156.22
2023-04-30T02:53:49.302Z,100158.78
2023-04-30T02:56:18.451Z,100154.66
2023-04-30T02:58:47.784Z,100168.44
2023-04-30T03:01:17.489Z,100167.66
2023-04-30T03:03:54.013Z,100174.53
2023-04-30T03:06:28.413Z,100177.03
2023-04-30T03:08:57.679Z,100174.38
2023-04-30T03:11:27.185Z,100171.78
2023-04-30T03:13:56.971Z,100151.03
2023-04-30T03:16:26.592Z,100179.41
2023-04-30T03:19:04.411Z,100179.38
2023-04-30T03:21:33.972Z,100176.00
2023-04-30T03:24:09.147Z,100176.00
2023-04-30T03:26:38.567Z,100171.69
2023-04-30T03:29:07.865Z,100174.28
2023-04-30T03:31:38.053Z,100162.44
2023-04-30T03:34:09.372Z,100140.19
2023-04-30T03:36:38.890Z,100160.13
2023-04-30T03:39:09.880Z,100155.91
2023-04-30T03:41:39.540Z,100140.66
2023-04-30T03:44:15.436Z,100135.66
2023-04-30T03:46:45.219Z,100137.50
2023-04-30T03:51:56.897Z,100130.09
2023-04-30T03:54:26.254Z,100130.38
2023-04-30T03:56:56.694Z,100128.94
2023-04-30T03:59:26.647Z,100130.22
2023-04-30T04:01:56.197Z,100128.84
2023-04-30T04:04:27.535Z,100108.47
2023-04-30T04:06:57.136Z,100119.00
2023-04-30T04:09:26.966Z,100107.09
2023-04-30T04:11:56.294Z,100131.34
2023-04-30T04:14:30.513Z,100131.56
2023-04-30T04:17:00.128Z,100110.97
2023-04-30T04:19:31.433Z,100121.44
2023-04-30T04:22:05.797Z,100124.94
2023-04-30T04:24:36.228Z,100117.22
2023-04-30T04:27:05.547Z,100117.19
2023-04-30T04:29:35.545Z,100119.75
2023-04-30T04:32:06.387Z,100124.06
2023-04-30T04:34:38.237Z,100109.53
2023-04-30T04:37:17.993Z,100114.78
2023-04-30T04:39:47.430Z,100083.88
2023-04-30T04:42:17.671Z,100106.38
2023-04-30T04:44:53.212Z,100109.88
2023-04-30T04:47:22.901Z,100112.50
2023-04-30T04:49:54.388Z,100108.25
2023-04-30T04:52:23.997Z,100107.44
2023-04-30T04:54:55.279Z,100099.75
2023-04-30T04:57:24.672Z,100093.72
2023-04-30T04:59:54.284Z,100095.47
2023-04-30T05:02:29.727Z,100072.25
2023-04-30T05:05:01.574Z,100092.03
2023-04-30T05:07:34.729Z,100087.72
2023-04-30T05:10:10.035Z,100095.50
2023-04-30T05:12:39.566Z,100074.84
2023-04-30T05:15:09.911Z,100084.31
2023-04-30T05:17:39.212Z,100083.44
2023-04-30T05:20:12.278Z,100081.72
2023-04-30T05:22:41.703Z,100077.44
2023-04-30T05:25:11.769Z,100074.84
2023-04-30T05:27:41.303Z,100066.25
2023-04-30T05:30:12.492Z,100075.69
2023-04-30T05:32:42.003Z,100076.56
2023-04-30T05:35:13.485Z,100075.69
2023-04-30T05:37:42.873Z,100083.44
2023-04-30T05:40:13.593Z,100066.28
2023-04-30T05:42:43.374Z,100063.66
2023-04-30T05:45:16.907Z,100063.66
2023-04-30T05:47:46.791Z,100071.41
2023-04-30T05:50:23.613Z,100065.38
2023-04-30T05:52:58.161Z,100054.13
2023-04-30T05:55:27.417Z,100069.63
2023-04-30T05:57:56.740Z,100071.31
2023-04-30T06:00:31.367Z,100080.69
2023-04-30T06:03:00.811Z,100060.81
2023-04-30T06:05:32.189Z,100069.41
2023-04-30T06:08:01.606Z,100064.28
2023-04-30T06:10:31.056Z,100088.31
2023-04-30T06:13:05.529Z,100058.94
2023-04-30T06:15:35.310Z,100084.75
2023-04-30T06:18:05.319Z,100071.69
2023-04-30T06:20:36.791Z,100078.47
2023-04-30T06:23:11.232Z,100077.38
2023-04-30T06:25:41.391Z,100074.75
2023-04-30T06:28:12.139Z,100072.09
2023-04-30T06:30:42.485Z,100039.25
2023-04-30T06:33:11.937Z,100069.38
2023-04-30T06:35:43.081Z,100041.13
2023-04-30T06:38:12.359Z,100070.47
2023-04-30T06:40:41.722Z,100061.78
2023-04-30T06:43:19.057Z,100051.44
2023-04-30T06:45:48.360Z,100071.97
2023-04-30T06:48:17.588Z,100051.22
2023-04-30T06:50:48.929Z,100066.63
2023-04-30T06:53:18.348Z,100055.16
2023-04-30T06:55:49.149Z,100057.72
2023-04-30T06:58:18.546Z,100042.38
2023-04-30T07:00:47.817Z,100037.31
2023-04-30T07:03:17.417Z,100047.56
2023-04-30T07:05:48.873Z,100031.09
2023-04-30T07:08:18.608Z,100034.38
2023-04-30T07:10:47.943Z,100013.63
2023-04-30T07:13:17.255Z,100024.00
2023-04-30T07:15:47.006Z,100021.44
2023-04-30T07:18:16.876Z,99996.34
2023-04-30T07:20:46.254Z,100006.38
2023-04-30T07:23:22.807Z,100011.28
2023-04-30T07:25:52.380Z,100000.66
2023-04-30T07:28:21.686Z,99996.19
2023-04-30T07:30:51.110Z,100000.56
2023-04-30T07:33:21.894Z,99968.06
2023-04-30T07:35:51.347Z,99953.41
2023-04-30T07:38:23.641Z,99968.22
2023-04-30T07:40:53.175Z,99965.53
2023-04-30T07:43:22.494Z,99980.88
2023-04-30T07:45:53.100Z,99932.53
2023-04-30T07:48:22.877Z,99957.28
2023-04-30T07:50:52.838Z,99955.41
2023-04-30T07:56:04.519Z,99941.09
2023-04-30T07:58:33.822Z,99921.31
2023-04-30T08:01:03.642Z,99930.63
2023-04-30T08:03:33.000Z,99933.09
2023-04-30T08:06:03.231Z,99928.88
2023-04-30T08:08:39.362Z,99915.28
2023-04-30T08:11:08.573Z,99889.53
2023-04-30T08:13:37.802Z,99885.50
2023-04-30T08:16:12.235Z,99899.63
2023-04-30T08:18:44.458Z,99862.38
2023-04-30T08:21:14.435Z,99882.16
2023-04-30T08:23:51.145Z,99861.97
2023-04-30T08:26:20.793Z,99859.31
2023-04-30T08:28:50.055Z,99870.56
2023-04-30T08:31:19.981Z,99849.94
2023-04-30T08:33:54.720Z,99863.53
2023-04-30T08:36:24.062Z,99847.97
2023-04-30T08:38:58.090Z,99828.16
2023-04-30T08:41:35.132Z,99842.34
2023-04-30T08:44:26.734Z,99826.97
2023-04-30T08:46:57.884Z,99846.84
2023-04-30T08:49:27.906Z,99838.22
2023-04-30T08:52:16.302Z,99828.66
2023-04-30T08:54:49.200Z,99837.97
2023-04-30T08:57:18.588Z,99820.75
2023-04-30T08:59:48.111Z,99821.53
2023-04-30T09:02:17.521Z,99807.75
2023-04-30T09:04:47.792Z,99810.94
2023-04-30T09:07:27.749Z,99806.50
2023-04-30T09:10:04.634Z,99799.59
2023-04-30T09:15:47.420Z,99797.97
2023-04-30T09:18:18.046Z,99787.63
2023-04-30T09:21:05.441Z,99792.13
2023-04-30T09:23:40.122Z,99779.31
2023-04-30T09:26:37.034Z,99761.38
2023-04-30T09:29:10.058Z,99781.72
2023-04-30T09:31:40.905Z,99783.16
2023-04-30T09:34:10.674Z,99743.22
2023-04-30T09:36:40.003Z,99760.94
2023-04-30T09:39:13.313Z,99741.84
2023-04-30T09:41:46.775Z,99735.94
2023-04-30T09:44:32.279Z,99748.16
2023-04-30T09:47:01.694Z,99761.91
2023-04-30T09:49:31.146Z,99732.66
2023-04-30T09:52:01.652Z,99746.63
2023-04-30T09:54:32.655Z,99755.25
2023-04-30T09:57:04.976Z,99736.94
2023-04-30T09:59:37.644Z,99693.75
2023-04-30T10:02:11.960Z,99709.34
2023-04-30T10:04:43.981Z,99676.88
2023-04-30T10:07:20.114Z,99689.31
2023-04-30T10:09:53.131Z,99729.97
2023-04-30T10:12:26.329Z,99733.44
2023-04-30T10:15:08.158Z,99737.72
2023-04-30T10:17:49.465Z,99746.13
2023-04-30T10:20:21.174Z,99707.00
2023-04-30T10:22:50.279Z,99720.19
2023-04-30T10:25:19.912Z,99722.22
2023-04-30T10:30:28.440Z,99719.78
2023-04-30T10:33:06.047Z,99730.13
2023-04-30T10:35:44.774Z,99723.34
2023-04-30T10:38:22.010Z,99693.22
2023-04-30T10:40:51.605Z,99714.69
2023-04-30T10:43:22.981Z,99744.78
2023-04-30T10:45:52.489Z,99726.25
2023-04-30T10:48:29.112Z,99733.94
2023-04-30T10:51:01.646Z,99706.75
2023-04-30T10:53:34.789Z,99732.19
2023-04-30T10:56:08.574Z,99692.75
2023-04-30T10:58:45.257Z,99729.66
2023-04-30T11:01:17.022Z,99728.78
2023-04-30T11:04:07.943Z,99675.53
2023-04-30T11:06:56.782Z,99722.69
2023-04-30T11:09:43.751Z,99704.69
2023-04-30T11:12:15.583Z,99702.38
2023-04-30T11:14:53.450Z,99709.44
2023-04-30T11:17:25.278Z,99697.28
2023-04-30T11:19:56.256Z,99679.06
2023-04-30T11:22:26.776Z,99654.03
2023-04-30T11:25:14.289Z,99641.16
2023-04-30T11:27:44.921Z,99650.75
2023-04-30T11:30:17.828Z,99614.28
2023-04-30T11:33:03.138Z,99632.38
2023-04-30T11:38:23.934Z,99616.38
2023-04-30T11:41:00.160Z,99638.22
2023-04-30T11:43:30.765Z,99649.59
2023-04-30T11:46:14.870Z,99608.22
2023-04-30T11:48:46.637Z,99647.47
2023-04-30T11:51:21.673Z,99668.34
2023-04-30T11:53:57.683Z,99659.78
2023-04-30T11:56:32.032Z,99665.91
2023-04-30T11:59:01.374Z,99620.28
2023-04-30T12:01:33.484Z,99634.00
2023-04-30T12:04:03.939Z,99625.50
2023-04-30T12:06:33.647Z,99608.31
2023-04-30T12:09:04.634Z,99612.91
2023-04-30T12:11:34.679Z,99612.72
2023-04-30T12:14:07.200Z,99633.47
2023-04-30T12:16:48.857Z,99630.75
2023-04-30T12:19:18.790Z,99627.31
2023-04-30T12:21:49.382Z,99615.50
2023-04-30T12:24:20.218Z,99627.66
2023-04-30T12:26:49.736Z,99612.34
2023-04-30T12:29:20.968Z,99628.59
2023-04-30T12:31:52.641Z,99644.19
2023-04-30T12:34:30.524Z,99635.84
2023-04-30T12:37:20.964Z,99640.97
2023-04-30T12:39:58.038Z,99645.28
2023-04-30T12:42:27.653Z,99637.72
2023-04-30T12:51:46.798Z,99636.13
2023-04-30T12:54:16.636Z,99643.19
2023-04-30T12:59:39.810Z,99644.72
2023-04-30T13:02:11.021Z,99636.88
2023-04-30T13:04:41.037Z,99642.97
2023-04-30T13:07:12.865Z,99644.63
2023-04-30T13:09:41.967Z,99637.50
2023-04-30T13:12:11.737Z,99627.31
2023-04-30T13:14:41.106Z,99639.44
2023-04-30T13:17:12.075Z,99616.25
2023-04-30T13:19:44.889Z,99637.97
2023-04-30T13:22:16.348Z,99629.44
2023-04-30T13:24:45.785Z,99626.06
2023-04-30T13:27:15.043Z,99604.56
2023-04-30T13:29:44.411Z,99612.41
2023-04-30T13:32:13.679Z,99606.47
2023-04-30T13:34:42.992Z,99602.97
2023-04-30T13:37:12.606Z,99609.97
2023-04-30T13:39:44.157Z,99578.22
2023-04-30T13:42:13.398Z,99592.66
2023-04-30T13:44:49.613Z,99589.31
2023-04-30T13:47:19.391Z,99559.16
2023-04-30T13:49:48.663Z,99536.81
2023-04-30T13:52:18.076Z,99524.88
2023-04-30T13:54:49.590Z,99543.81
2023-04-30T13:57:18.997Z,99522.31
2023-04-30T13:59:48.694Z,99538.66
2023-04-30T14:02:18.306Z,99545.50
2023-04-30T14:05:02.108Z,99552.31
2023-04-30T14:07:40.362Z,99534.22
2023-04-30T14:10:12.486Z,99516.06
2023-04-30T14:12:48.966Z,99510.13
2023-04-30T14:15:33.771Z,99510.09
2023-04-30T14:18:08.202Z,99481.69
2023-04-30T14:20:37.509Z,99506.75
2023-04-30T14:23:06.974Z,99508.50
2023-04-30T14:25:38.579Z,99497.41
2023-04-30T14:28:08.166Z,99487.88
2023-04-30T14:30:37.427Z,99476.72
2023-04-30T14:33:06.948Z,99487.06
2023-04-30T14:35:36.737Z,99467.19
2023-04-30T14:38:05.991Z,99481.00
2023-04-30T14:40:42.331Z,99465.44
2023-04-30T14:43:17.221Z,99476.75
2023-04-30T14:45:46.903Z,99459.59
2023-04-30T14:48:16.351Z,99440.53
2023-04-30T14:50:46.151Z,99415.78
2023-04-30T14:53:15.575Z,99432.00
2023-04-30T14:55:46.796Z,99424.41
2023-04-30T14:58:16.200Z,99407.97
2023-04-30T15:01:04.130Z,99352.25
2023-04-30T15:03:33.741Z,99414.13
2023-04-30T15:06:04.287Z,99409.78
2023-04-30T15:08:40.203Z,99391.72
2023-04-30T15:11:12.890Z,99413.28
2023-04-30T15:13:42.404Z,99324.16
2023-04-30T15:16:17.049Z,99387.75
2023-04-30T15:18:46.804Z,99405.69
2023-04-30T15:21:16.117Z,99406.63
2023-04-30T15:23:45.580Z,99416.13
2023-04-30T15:26:18.982Z,99399.78
2023-04-30T15:28:48.557Z,99401.59
2023-04-30T15:31:17.829Z,99377.38
2023-04-30T15:33:52.211Z,99386.06
2023-04-30T15:36:26.648Z,99358.50
2023-04-30T15:38:55.945Z,99355.03
2023-04-30T15:41:27.378Z,99317.13
2023-04-30T15:43:56.948Z,99351.72
2023-04-30T15:46:26.396Z,99335.31
2023-04-30T15:49:05.875Z,99351.72
2023-04-30T15:51:36.339Z,99317.22
2023-04-30T15:54:06.970Z,99277.91
2023-04-30T15:56:58.025Z,99320.22
2023-04-30T15:59:27.464Z,99322.72
2023-04-30T16:01:57.084Z,99297.75
2023-04-30T16:04:26.701Z,99346.03
2023-04-30T16:09:31.467Z,99298.91
2023-04-30T16:12:10.628Z,99297.22
2023-04-30T16:14:40.820Z,99313.72
2023-04-30T16:17:10.378Z,99281.31
2023-04-30T16:19:40.726Z,99313.72
2023-04-30T16:22:10.208Z,99296.63
2023-04-30T16:24:39.488Z,99245.91
2023-04-30T16:27:12.013Z,99277.06
2023-04-30T16:29:46.759Z,99247.78
2023-04-30T16:32:16.200Z,99257.25
2023-04-30T16:34:45.739Z,99250.34
2023-04-30T16:37:15.757Z,99266.00
2023-04-30T16:39:45.232Z,99260.16
2023-04-30T16:42:16.510Z,99258.47
2023-04-30T16:44:45.959Z,99257.72
2023-04-30T16:47:21.981Z,99274.09
2023-04-30T16:49:51.399Z,99272.50
2023-04-30T16:52:34.194Z,99287.25
2023-04-30T16:55:04.298Z,99274.44
2023-04-30T16:57:36.610Z,99244.53
2023-04-30T17:00:11.071Z,99267.88
2023-04-30T17:05:22.317Z,99257.09
2023-04-30T17:07:51.753Z,99275.16
2023-04-30T17:10:27.059Z,99273.50
2023-04-30T17:12:59.587Z,99257.25
2023-04-30T17:15:33.941Z,99268.41
2023-04-30T17:18:03.378Z,99250.44
2023-04-30T17:20:33.558Z,99234.16
2023-04-30T17:23:03.334Z,99164.97
2023-04-30T17:25:33.388Z,99264.34
2023-04-30T17:28:05.147Z,99177.94
2023-04-30T17:30:35.693Z,99229.34
2023-04-30T17:33:05.680Z,99203.63
2023-04-30T17:35:35.294Z,99246.63
2023-04-30T17:38:15.077Z,99237.25
2023-04-30T17:40:44.333Z,99213.31
2023-04-30T17:43:15.548Z,99215.00
2023-04-30T17:45:45.294Z,99233.00
2023-04-30T17:48:19.693Z,99243.28
2023-04-30T17:50:49.083Z,99208.19
2023-04-30T17:53:18.220Z,99230.44
2023-04-30T17:55:47.593Z,99184.09
2023-04-30T17:58:46.043Z,99152.38
2023-04-30T18:01:15.525Z,99165.31
2023-04-30T18:03:44.967Z,99167.94
2023-04-30T18:06:14.663Z,99221.09
2023-04-30T18:08:44.123Z,99179.91
2023-04-30T18:11:18.588Z,99200.50
2023-04-30T18:13:49.827Z,99181.66
2023-04-30T18:16:19.756Z,99170.56
2023-04-30T18:18:55.743Z,99168.88
2023-04-30T18:21:40.073Z,99174.97
2023-04-30T18:24:10.242Z,99192.94
2023-04-30T18:26:44.623Z,99177.53
2023-04-30T18:29:17.735Z,99187.81
2023-04-30T18:31:47.399Z,99171.56
2023-04-30T18:34:16.783Z,99139.00
2023-04-30T18:36:46.142Z,99164.69
2023-04-30T18:39:15.477Z,99181.84
2023-04-30T18:41:44.777Z,99177.59
2023-04-30T18:44:16.095Z,99188.72
2023-04-30T18:46:50.719Z,99167.31
2023-04-30T18:49:19.994Z,99142.47
2023-04-30T18:51:49.288Z,99119.41
2023-04-30T18:54:18.514Z,99157.94
2023-04-30T18:56:47.776Z,99163.06
2023-04-30T18:59:21.579Z,99167.34
2023-04-30T19:01:51.292Z,99164.78
2023-04-30T19:04:20.597Z,99158.81
2023-04-30T19:07:02.857Z,99149.34
2023-04-30T19:09:48.154Z,99147.66
2023-04-30T19:12:27.477Z,99121.13
2023-04-30T19:14:58.664Z,99142.50
2023-04-30T19:17:30.204Z,99068.00
2023-04-30T19:20:00.324Z,99108.28
2023-04-30T19:22:29.582Z,99085.22
2023-04-30T19:24:58.860Z,99120.25
2023-04-30T19:27:28.958Z,99121.13
2023-04-30T19:30:07.235Z,99089.41
2023-04-30T19:32:36.647Z,99086.84
2023-04-30T19:35:06.689Z,99081.72
2023-04-30T19:40:12.397Z,99063.78
2023-04-30T19:42:41.933Z,99061.16
2023-04-30T19:45:13.880Z,99053.53
2023-04-30T19:47:43.399Z,99079.16
2023-04-30T19:50:36.351Z,99052.63
2023-04-30T19:53:05.694Z,99059.44
2023-04-30T19:55:35.058Z,99080.00
2023-04-30T19:58:09.460Z,99062.88
2023-04-30T20:00:44.881Z,99064.59
2023-04-30T20:03:15.876Z,99056.88
2023-04-30T20:05:46.300Z,99043.22
2023-04-30T20:08:21.611Z,99051.75
2023-04-30T20:10:50.925Z,99027.81
2023-04-30T20:13:20.685Z,99022.59
2023-04-30T20:15:52.464Z,99043.16
2023-04-30T20:18:21.459Z,99026.88
2023-04-30T20:20:50.517Z,99017.50
2023-04-30T20:23:31.422Z,98995.41
2023-04-30T20:26:05.928Z,99012.44
2023-04-30T20:28:36.423Z,99011.56
2023-04-30T20:31:09.179Z,99013.25
2023-04-30T20:33:40.844Z,98974.84
2023-04-30T20:36:17.044Z,98952.47
2023-04-30T20:38:46.799Z,98942.34
2023-04-30T20:41:16.014Z,98972.16
2023-04-30T20:43:45.669Z,98927.88
2023-04-30T20:46:16.903Z,98979.91
2023-04-30T20:49:04.764Z,98989.34
2023-04-30T20:51:39.869Z,98984.22
2023-04-30T20:54:09.472Z,98955.09
2023-04-30T20:56:44.808Z,98966.13
2023-04-30T20:59:13.974Z,98964.44
2023-04-30T21:01:59.329Z,98968.75
2023-04-30T21:04:28.770Z,98962.84
2023-04-30T21:06:58.086Z,98902.19
2023-04-30T21:09:27.504Z,98931.09
2023-04-30T21:11:57.001Z,98948.25
2023-04-30T21:14:32.179Z,98957.66
2023-04-30T21:17:13.962Z,98960.25
2023-04-30T21:19:43.631Z,98941.34
2023-04-30T21:22:28.388Z,98927.69
2023-04-30T21:25:02.885Z,98937.97
2023-04-30T21:27:34.719Z,98949.91
2023-04-30T21:30:04.195Z,98951.63
2023-04-30T21:32:37.083Z,98961.03
2023-04-30T21:35:07.422Z,98946.41
2023-04-30T21:37:37.170Z,98919.88
2023-04-30T21:40:07.500Z,98898.41
2023-04-30T21:42:36.703Z,98919.78
2023-04-30T21:45:24.569Z,98948.09
2023-04-30T21:47:55.981Z,98959.25
2023-04-30T21:50:39.011Z,98944.69
2023-04-30T21:53:08.591Z,98934.38
2023-04-30T21:55:37.974Z,98936.91
2023-04-30T21:58:22.077Z,98951.44
2023-04-30T22:00:51.434Z,98951.44
2023-04-30T22:03:27.890Z,98939.41
2023-04-30T22:06:25.168Z,98932.53
2023-04-30T22:08:59.543Z,98947.06
2023-04-30T22:11:29.018Z,98952.19
2023-04-30T22:13:58.614Z,98953.03
2023-04-30T22:16:32.880Z,98956.47
2023-04-30T22:19:04.149Z,98955.63
2023-04-30T22:21:40.329Z,98948.78
2023-04-30T22:24:09.494Z,98945.31
2023-04-30T22:26:57.603Z,98931.59
2023-04-30T22:29:26.956Z,98933.31
2023-04-30T22:31:56.189Z,98929.78
2023-04-30T22:34:27.519Z,98931.50
2023-04-30T22:36:56.819Z,98927.25
2023-04-30T22:39:26.356Z,98923.91
2023-04-30T22:41:55.908Z,98919.59
2023-04-30T22:44:26.009Z,98914.47
2023-04-30T22:46:58.762Z,98895.78
2023-04-30T22:49:32.383Z,98904.28
2023-04-30T22:52:02.837Z,98902.69
2023-04-30T22:54:32.690Z,98908.66
2023-04-30T22:57:02.720Z,98894.97
2023-04-30T23:02:07.322Z,98912.97
2023-04-30T23:04:38.778Z,98906.16
2023-04-30T23:07:08.101Z,98911.25
2023-04-30T23:09:37.264Z,98894.13
2023-04-30T23:12:06.920Z,98896.69
2023-04-30T23:14:37.217Z,98878.84
2023-04-30T23:17:06.970Z,98884.69
2023-04-30T23:19:38.967Z,98890.69
2023-04-30T23:22:07.927Z,98887.19
2023-04-30T23:24:38.326Z,98873.56
2023-04-30T23:27:13.192Z,98879.56
2023-04-30T23:29:42.560Z,98834.34
2023-04-30T23:32:11.912Z,98844.44
2023-04-30T23:34:43.080Z,98854.69
2023-04-30T23:37:13.493Z,98868.38
2023-04-30T23:39:43.091Z,98871.03
2023-04-30T23:42:13.309Z,98814.78
2023-04-30T23:44:42.569Z,98861.59
2023-04-30T23:47:12.140Z,98867.56
2023-04-30T23:49:45.804Z,98865.88
2023-04-30T23:52:25.573Z,98869.28
2023-04-30T23:54:54.813Z,98871.88
2023-04-30T23:57:24.278Z,98866.72
2023-04-30T23:59:53.810Z,98874.44
